createdAt,value
2022-09-27T05:28:59.640Z,0.00
2022-09-27T05:29:59.574Z,0.00
2022-09-27T05:30:59.589Z,0.00
2022-09-27T05:31:59.491Z,0.00
2022-09-27T05:32:59.427Z,0.00
2022-09-27T05:33:59.382Z,0.00
2022-09-27T05:34:59.332Z,0.00
2022-09-27T05:35:59.284Z,0.00
2022-09-27T05:36:59.238Z,0.00
2022-09-27T05:37:59.192Z,0.00
2022-09-27T05:38:59.138Z,0.00
2022-09-27T05:39:59.093Z,0.00
2022-09-27T05:40:59.107Z,0.00
2022-09-27T05:41:58.998Z,0.00
2022-09-27T05:42:58.951Z,0.00
2022-09-27T05:43:58.900Z,0.00
2022-09-27T05:44:58.868Z,0.00
2022-09-27T05:45:58.907Z,0.00
2022-09-27T05:46:58.753Z,0.00
2022-09-27T05:47:58.707Z,0.00
2022-09-27T05:48:58.660Z,0.00
2022-09-27T05:49:58.611Z,0.00
2022-09-27T05:50:58.561Z,0.00
2022-09-27T05:51:58.515Z,0.00
2022-09-27T05:52:58.466Z,0.00
2022-09-27T05:53:58.420Z,0.00
2022-09-27T05:54:58.370Z,0.00
2022-09-27T05:55:58.325Z,5.63
2022-09-27T05:56:58.278Z,5.63
2022-09-27T05:57:58.227Z,5.63
2022-09-27T05:58:58.178Z,5.63
2022-09-27T05:59:58.141Z,5.63
2022-09-27T06:00:58.103Z,5.63
2022-09-27T06:01:58.165Z,5.63
2022-09-27T06:02:58.057Z,5.63
2022-09-27T06:03:57.941Z,5.63
2022-09-27T06:04:57.892Z,5.63
2022-09-27T06:05:57.849Z,5.63
2022-09-27T06:06:57.795Z,5.63
2022-09-27T06:07:57.749Z,5.63
2022-09-27T06:08:57.702Z,5.63
2022-09-27T06:09:57.652Z,5.63
2022-09-27T06:10:57.602Z,5.63
2022-09-27T06:11:57.556Z,5.63
2022-09-27T06:12:57.512Z,5.63
2022-09-27T06:13:57.464Z,5.63
2022-09-27T06:14:57.414Z,5.63
2022-09-27T06:15:57.382Z,5.63
2022-09-27T06:16:57.376Z,5.63
2022-09-27T06:17:57.269Z,5.63
2022-09-27T06:18:57.219Z,5.63
2022-09-27T06:19:57.184Z,5.63
2022-09-27T06:20:57.134Z,5.63
2022-09-27T06:21:57.079Z,5.63
2022-09-27T06:22:57.028Z,5.63
2022-09-27T06:23:56.995Z,5.63
2022-09-27T06:24:56.939Z,5.63
2022-09-27T06:25:56.887Z,5.63
2022-09-27T06:26:56.838Z,5.63
2022-09-27T06:27:56.789Z,5.63
2022-09-27T06:28:56.743Z,5.63
2022-09-27T06:29:56.693Z,5.63
2022-09-27T06:30:56.723Z,0.00
2022-09-27T06:31:56.597Z,0.00
2022-09-27T06:32:56.567Z,0.00
2022-09-27T06:33:56.508Z,0.00
2022-09-27T06:34:56.460Z,0.00
2022-09-27T06:35:56.406Z,0.00
2022-09-27T06:36:56.356Z,0.00
2022-09-27T06:37:56.310Z,0.00
2022-09-27T06:38:56.259Z,5.63
2022-09-27T06:39:56.215Z,5.63
2022-09-27T06:40:56.212Z,5.63
2022-09-27T06:41:56.123Z,5.63
2022-09-27T06:42:56.069Z,5.63
2022-09-27T06:43:56.026Z,5.63
2022-09-27T06:44:55.975Z,11.25
2022-09-27T06:45:55.965Z,11.25
2022-09-27T06:46:55.882Z,11.25
2022-09-27T06:47:55.832Z,11.25
2022-09-27T06:48:55.803Z,11.25
2022-09-27T06:49:55.737Z,11.25
2022-09-27T06:50:55.687Z,11.25
2022-09-27T06:51:55.639Z,11.25
2022-09-27T06:52:55.591Z,11.25
2022-09-27T06:53:55.542Z,11.25
2022-09-27T06:54:55.494Z,11.25
2022-09-27T06:55:55.448Z,11.25
2022-09-27T06:56:58.925Z,11.25
2022-09-27T06:57:55.352Z,11.25
2022-09-27T06:58:55.307Z,11.25
2022-09-27T06:59:55.260Z,11.25
2022-09-27T07:00:55.246Z,16.88
2022-09-27T07:01:55.178Z,16.88
2022-09-27T07:02:55.113Z,16.88
2022-09-27T07:03:55.070Z,16.88
2022-09-27T07:04:55.037Z,16.88
2022-09-27T07:05:54.970Z,16.88
2022-09-27T07:06:54.921Z,16.88
2022-09-27T07:07:54.875Z,16.88
2022-09-27T07:08:54.829Z,16.88
2022-09-27T07:09:54.778Z,16.88
2022-09-27T07:10:54.734Z,16.88
2022-09-27T07:11:54.683Z,16.88
2022-09-27T07:12:54.640Z,16.88
2022-09-27T07:13:54.586Z,16.88
2022-09-27T07:14:54.538Z,16.88
2022-09-27T07:15:54.492Z,16.88
2022-09-27T07:16:54.511Z,16.88
2022-09-27T07:17:54.397Z,16.88
2022-09-27T07:18:54.347Z,16.88
2022-09-27T07:19:55.307Z,16.88
2022-09-27T07:20:59.346Z,22.50
2022-09-27T07:21:54.204Z,22.50
2022-09-27T07:22:54.154Z,22.50
2022-09-27T07:23:54.108Z,22.50
2022-09-27T07:24:54.264Z,22.50
2022-09-27T07:25:54.015Z,22.50
2022-09-27T07:26:53.962Z,22.50
2022-09-27T07:27:53.919Z,22.50
2022-09-27T07:28:53.868Z,28.13
2022-09-27T07:29:53.821Z,28.13
2022-09-27T07:30:53.804Z,28.13
2022-09-27T07:31:53.726Z,28.13
2022-09-27T07:32:53.681Z,28.13
2022-09-27T07:33:53.633Z,28.13
2022-09-27T07:34:53.582Z,28.13
2022-09-27T07:35:53.537Z,33.75
2022-09-27T07:36:53.505Z,33.75
2022-09-27T07:37:53.441Z,33.75
2022-09-27T07:38:53.390Z,33.75
2022-09-27T07:39:53.345Z,28.13
2022-09-27T07:40:53.326Z,28.13
2022-09-27T07:41:53.251Z,28.13
2022-09-27T07:42:53.200Z,28.13
2022-09-27T07:43:53.153Z,28.13
2022-09-27T07:44:53.107Z,33.75
2022-09-27T07:45:53.121Z,33.75
2022-09-27T07:46:53.008Z,33.75
2022-09-27T07:47:52.963Z,39.38
2022-09-27T07:48:52.913Z,39.38
2022-09-27T07:49:52.870Z,39.38
2022-09-27T07:50:52.817Z,39.38
2022-09-27T07:51:52.774Z,33.75
2022-09-27T07:52:52.745Z,33.75
2022-09-27T07:53:52.680Z,33.75
2022-09-27T07:54:52.629Z,39.38
2022-09-27T07:55:52.583Z,33.75
2022-09-27T07:56:52.537Z,28.13
2022-09-27T07:57:52.486Z,28.13
2022-09-27T07:58:52.438Z,22.50
2022-09-27T08:00:52.357Z,16.88
2022-09-27T08:01:52.326Z,16.88
2022-09-27T08:02:52.248Z,16.88
2022-09-27T08:03:52.200Z,16.88
2022-09-27T08:04:52.153Z,16.88
2022-09-27T08:05:52.103Z,16.88
2022-09-27T08:06:52.062Z,22.50
2022-09-27T08:07:52.011Z,22.50
2022-09-27T08:08:51.993Z,28.13
2022-09-27T08:09:51.913Z,33.75
2022-09-27T08:10:51.869Z,39.38
2022-09-27T08:11:51.823Z,39.38
2022-09-27T08:12:51.775Z,39.38
2022-09-27T08:13:51.725Z,39.38
2022-09-27T08:14:51.677Z,39.38
2022-09-27T08:15:51.631Z,39.38
2022-09-27T08:16:51.644Z,39.38
2022-09-27T08:17:51.534Z,39.38
2022-09-27T08:18:51.487Z,39.38
2022-09-27T08:19:51.441Z,45.00
2022-09-27T08:20:51.398Z,45.00
2022-09-27T08:21:54.431Z,39.38
2022-09-27T08:22:51.300Z,39.38
2022-09-27T08:23:51.251Z,39.38
2022-09-27T08:24:51.231Z,39.38
2022-09-27T08:25:51.153Z,33.75
2022-09-27T08:26:51.109Z,39.38
2022-09-27T08:27:51.059Z,39.38
2022-09-27T08:28:51.014Z,39.38
2022-09-27T08:29:50.968Z,39.38
2022-09-27T08:30:50.921Z,39.38
2022-09-27T08:31:50.926Z,39.38
2022-09-27T08:32:50.830Z,39.38
2022-09-27T08:33:50.776Z,39.38
2022-09-27T08:34:50.731Z,39.38
2022-09-27T08:35:50.681Z,39.38
2022-09-27T08:36:50.636Z,39.38
2022-09-27T08:37:50.585Z,39.38
2022-09-27T08:38:50.543Z,39.38
2022-09-27T08:39:50.491Z,39.38
2022-09-27T08:40:50.511Z,39.38
2022-09-27T08:41:50.397Z,39.38
2022-09-27T08:42:50.351Z,39.38
2022-09-27T08:43:50.309Z,33.75
2022-09-27T08:44:50.265Z,33.75
2022-09-27T08:45:50.246Z,39.38
2022-09-27T08:46:50.491Z,39.38
2022-09-27T08:47:50.326Z,33.75
2022-09-27T08:48:50.074Z,33.75
2022-09-27T08:49:50.018Z,28.13
2022-09-27T08:50:49.972Z,28.13
2022-09-27T08:51:49.926Z,28.13
2022-09-27T08:52:49.903Z,28.13
2022-09-27T08:53:49.832Z,28.13
2022-09-27T08:54:49.787Z,28.13
2022-09-27T08:55:49.735Z,33.75
2022-09-27T08:56:49.708Z,28.13
2022-09-27T08:57:49.640Z,28.13
2022-09-27T08:58:49.594Z,33.75
2022-09-27T08:59:49.546Z,28.13
2022-09-27T09:00:49.536Z,33.75
2022-09-27T09:01:49.467Z,33.75
2022-09-27T09:02:49.406Z,33.75
2022-09-27T09:03:49.357Z,33.75
2022-09-27T09:04:49.310Z,33.75
2022-09-27T09:05:49.262Z,33.75
2022-09-27T09:06:49.216Z,33.75
2022-09-27T09:07:49.167Z,33.75
2022-09-27T09:08:51.085Z,33.75
2022-09-27T09:09:49.091Z,33.75
2022-09-27T09:10:49.026Z,33.75
2022-09-27T09:11:48.979Z,28.13
2022-09-27T09:12:48.970Z,22.50
2022-09-27T09:13:48.882Z,28.13
2022-09-27T09:14:48.844Z,28.13
2022-09-27T09:15:48.787Z,28.13
2022-09-27T09:16:48.773Z,33.75
2022-09-27T09:17:48.707Z,33.75
2022-09-27T09:18:48.650Z,33.75
2022-09-27T09:19:48.598Z,39.38
2022-09-27T09:20:48.559Z,33.75
2022-09-27T09:21:48.503Z,33.75
2022-09-27T09:22:48.457Z,33.75
2022-09-27T09:23:48.409Z,33.75
2022-09-27T09:24:48.417Z,33.75
2022-09-27T09:25:48.314Z,33.75
2022-09-27T09:26:48.275Z,33.75
2022-09-27T09:27:48.220Z,33.75
2022-09-27T09:28:48.195Z,33.75
2022-09-27T09:29:48.127Z,39.38
2022-09-27T09:30:48.081Z,39.38
2022-09-27T09:31:48.143Z,39.38
2022-09-27T09:32:47.986Z,39.38
2022-09-27T09:33:47.938Z,39.38
2022-09-27T09:34:47.890Z,39.38
2022-09-27T09:35:47.842Z,39.38
2022-09-27T09:36:47.797Z,39.38
2022-09-27T09:37:47.749Z,39.38
2022-09-27T09:38:47.701Z,33.75
2022-09-27T09:39:47.653Z,33.75
2022-09-27T09:40:47.669Z,33.75
2022-09-27T09:41:47.562Z,33.75
2022-09-27T09:42:47.515Z,33.75
2022-09-27T09:43:47.465Z,33.75
2022-09-27T09:44:47.437Z,39.38
2022-09-27T09:45:47.459Z,39.38
2022-09-27T09:46:47.324Z,39.38
2022-09-27T09:47:47.279Z,45.00
2022-09-27T09:48:47.229Z,45.00
2022-09-27T09:49:47.183Z,45.00
2022-09-27T09:50:47.141Z,39.38
2022-09-27T09:51:47.089Z,45.00
2022-09-27T09:52:47.039Z,45.00
2022-09-27T09:53:46.999Z,39.38
2022-09-27T09:54:46.943Z,39.38
2022-09-27T09:55:46.899Z,39.38
2022-09-27T09:56:46.851Z,39.38
2022-09-27T09:57:46.803Z,39.38
2022-09-27T09:58:46.756Z,39.38
2022-09-27T09:59:46.711Z,39.38
2022-09-27T10:00:46.707Z,39.38
2022-09-27T10:01:46.682Z,45.00
2022-09-27T10:02:46.567Z,45.00
2022-09-27T10:03:46.527Z,45.00
2022-09-27T10:04:46.472Z,39.38
2022-09-27T10:05:46.428Z,45.00
2022-09-27T10:06:46.378Z,33.75
2022-09-27T10:07:46.333Z,33.75
2022-09-27T10:08:46.286Z,33.75
2022-09-27T10:09:46.238Z,33.75
2022-09-27T10:10:46.191Z,39.38
2022-09-27T10:11:46.163Z,39.38
2022-09-27T10:12:46.096Z,39.38
2022-09-27T10:13:46.049Z,39.38
2022-09-27T10:14:45.999Z,45.00
2022-09-27T10:15:45.954Z,50.63
2022-09-27T10:16:46.113Z,50.63
2022-09-27T10:17:45.859Z,45.00
2022-09-27T10:18:49.796Z,45.00
2022-09-27T10:19:45.766Z,45.00
2022-09-27T10:20:45.718Z,45.00
2022-09-27T10:21:45.673Z,50.63
2022-09-27T10:22:45.620Z,56.25
2022-09-27T10:23:45.577Z,61.88
2022-09-27T10:24:45.529Z,50.63
2022-09-27T10:25:45.484Z,50.63
2022-09-27T10:26:45.432Z,50.63
2022-09-27T10:27:45.386Z,56.25
2022-09-27T10:28:45.338Z,56.25
2022-09-27T10:29:45.292Z,61.88
2022-09-27T10:30:45.245Z,67.50
2022-09-27T10:31:45.292Z,67.50
2022-09-27T10:32:45.170Z,67.50
2022-09-27T10:33:45.106Z,61.88
2022-09-27T10:34:45.056Z,61.88
2022-09-27T10:35:45.011Z,73.13
2022-09-27T10:36:44.962Z,78.75
2022-09-27T10:37:44.916Z,90.00
2022-09-27T10:38:44.868Z,78.75
2022-09-27T10:39:44.919Z,78.75
2022-09-27T10:40:44.816Z,73.13
2022-09-27T10:41:44.730Z,78.75
2022-09-27T10:42:44.679Z,73.13
2022-09-27T10:43:44.635Z,56.25
2022-09-27T10:44:44.586Z,56.25
2022-09-27T10:45:44.591Z,67.50
2022-09-27T10:46:44.492Z,73.13
2022-09-27T10:47:44.446Z,67.50
2022-09-27T10:48:44.418Z,56.25
2022-09-27T10:49:44.352Z,33.75
2022-09-27T10:50:51.389Z,33.75
2022-09-27T10:51:44.259Z,33.75
2022-09-27T10:52:44.211Z,39.38
2022-09-27T10:53:44.165Z,39.38
2022-09-27T10:54:44.130Z,39.38
2022-09-27T10:55:44.075Z,33.75
2022-09-27T10:56:44.033Z,45.00
2022-09-27T10:57:45.240Z,56.25
2022-09-27T10:58:43.939Z,56.25
2022-09-27T10:59:43.886Z,67.50
2022-09-27T11:00:43.915Z,67.50
2022-09-27T11:01:43.793Z,73.13
2022-09-27T11:02:43.748Z,67.50
2022-09-27T11:03:43.704Z,67.50
2022-09-27T11:04:43.940Z,67.50
2022-09-27T11:05:43.617Z,61.88
2022-09-27T11:06:43.557Z,61.88
2022-09-27T11:07:43.522Z,61.88
2022-09-27T11:08:43.463Z,67.50
2022-09-27T11:09:43.421Z,61.88
2022-09-27T11:10:43.370Z,56.25
2022-09-27T11:11:43.332Z,50.63
2022-09-27T11:12:43.283Z,39.38
2022-09-27T11:13:43.234Z,28.13
2022-09-27T11:14:43.187Z,28.13
2022-09-27T11:15:43.146Z,33.75
2022-09-27T11:16:43.151Z,39.38
2022-09-27T11:17:43.044Z,50.63
2022-09-27T11:18:42.997Z,61.88
2022-09-27T11:19:42.953Z,56.25
2022-09-27T11:20:43.044Z,56.25
2022-09-27T11:21:42.858Z,61.88
2022-09-27T11:22:42.813Z,56.25
2022-09-27T11:23:42.765Z,61.88
2022-09-27T11:24:42.718Z,67.50
2022-09-27T11:25:42.675Z,73.13
2022-09-27T11:26:42.625Z,78.75
2022-09-27T11:27:42.578Z,84.38
2022-09-27T11:28:42.530Z,84.38
2022-09-27T11:29:42.560Z,84.38
2022-09-27T11:30:42.438Z,90.00
2022-09-27T11:31:42.426Z,84.38
2022-09-27T11:32:42.344Z,78.75
2022-09-27T11:33:42.297Z,84.38
2022-09-27T11:34:42.249Z,84.38
2022-09-27T11:35:42.207Z,78.75
2022-09-27T11:36:42.174Z,67.50
2022-09-27T11:37:42.114Z,56.25
2022-09-27T11:38:52.880Z,56.25
2022-09-27T11:39:42.019Z,61.88
2022-09-27T11:40:42.011Z,67.50
2022-09-27T11:41:41.927Z,73.13
2022-09-27T11:42:41.877Z,73.13
2022-09-27T11:43:41.834Z,78.75
2022-09-27T11:44:41.784Z,67.50
2022-09-27T11:46:03.259Z,61.88
2022-09-27T11:46:42.357Z,61.88
2022-09-27T11:47:41.777Z,56.25
2022-09-27T11:48:41.600Z,56.25
2022-09-27T11:49:41.553Z,56.25
2022-09-27T11:50:41.509Z,50.63
2022-09-27T11:51:41.461Z,45.00
2022-09-27T11:52:41.431Z,45.00
2022-09-27T11:53:41.366Z,39.38
2022-09-27T11:54:41.318Z,28.13
2022-09-27T11:55:41.271Z,22.50
2022-09-27T11:56:41.229Z,16.88
2022-09-27T11:57:41.181Z,22.50
2022-09-27T11:58:41.135Z,39.38
2022-09-27T11:59:41.087Z,50.63
2022-09-27T12:00:41.039Z,56.25
2022-09-27T12:01:41.032Z,67.50
2022-09-27T12:02:41.008Z,67.50
2022-09-27T12:03:40.901Z,61.88
2022-09-27T12:04:40.858Z,56.25
2022-09-27T12:05:40.812Z,56.25
2022-09-27T12:06:40.758Z,45.00
2022-09-27T12:07:40.716Z,39.38
2022-09-27T12:08:40.690Z,45.00
2022-09-27T12:09:40.621Z,45.00
2022-09-27T12:10:40.575Z,45.00
2022-09-27T12:11:40.539Z,33.75
2022-09-27T12:12:40.483Z,28.13
2022-09-27T12:13:40.437Z,22.50
2022-09-27T12:14:40.393Z,16.88
2022-09-27T12:15:40.466Z,16.88
2022-09-27T12:16:40.297Z,16.88
2022-09-27T12:17:40.249Z,16.88
2022-09-27T12:18:40.215Z,11.25
2022-09-27T12:19:40.155Z,5.63
2022-09-27T12:20:40.114Z,5.63
2022-09-27T12:21:40.062Z,11.25
2022-09-27T12:22:58.142Z,11.25
2022-09-27T12:23:39.967Z,11.25
2022-09-27T12:24:39.981Z,16.88
2022-09-27T12:25:39.878Z,16.88
2022-09-27T12:26:39.828Z,11.25
2022-09-27T12:27:39.782Z,11.25
2022-09-27T12:28:39.733Z,11.25
2022-09-27T12:29:39.690Z,11.25
2022-09-27T12:30:39.661Z,5.63
2022-09-27T12:31:39.660Z,5.63
2022-09-27T12:32:39.547Z,5.63
2022-09-27T12:33:39.501Z,11.25
2022-09-27T12:34:39.452Z,5.63
2022-09-27T12:35:39.407Z,5.63
2022-09-27T12:36:39.357Z,5.63
2022-09-27T12:37:39.311Z,11.25
2022-09-27T12:38:39.262Z,22.50
2022-09-27T12:39:39.219Z,28.13
2022-09-27T12:40:39.303Z,33.75
2022-09-27T12:41:39.123Z,39.38
2022-09-27T12:42:39.079Z,45.00
2022-09-27T12:43:39.033Z,45.00
2022-09-27T12:44:38.983Z,45.00
2022-09-27T12:45:38.935Z,45.00
2022-09-27T12:46:38.966Z,45.00
2022-09-27T12:47:38.844Z,45.00
2022-09-27T12:48:38.796Z,50.63
2022-09-27T12:49:38.747Z,56.25
2022-09-27T12:50:38.699Z,50.63
2022-09-27T12:51:38.655Z,50.63
2022-09-27T12:52:38.607Z,50.63
2022-09-27T12:53:38.560Z,61.88
2022-09-27T12:54:38.515Z,67.50
2022-09-27T12:55:38.466Z,73.13
2022-09-27T12:56:38.434Z,73.13
2022-09-27T12:57:38.371Z,73.13
2022-09-27T12:58:38.322Z,73.13
2022-09-27T12:59:38.278Z,78.75
2022-09-27T13:00:38.338Z,84.38
2022-09-27T13:01:38.345Z,84.38
2022-09-27T13:02:41.511Z,84.38
2022-09-27T13:03:38.089Z,73.13
2022-09-27T13:04:38.039Z,67.50
2022-09-27T13:05:37.997Z,56.25
2022-09-27T13:06:37.947Z,61.88
2022-09-27T13:07:37.903Z,61.88
2022-09-27T13:08:37.853Z,61.88
2022-09-27T13:09:37.806Z,56.25
2022-09-27T13:10:37.759Z,50.63
2022-09-27T13:11:37.715Z,45.00
2022-09-27T13:12:37.704Z,45.00
2022-09-27T13:13:37.623Z,39.38
2022-09-27T13:14:37.570Z,45.00
2022-09-27T13:15:37.561Z,45.00
2022-09-27T13:16:37.484Z,56.25
2022-09-27T13:17:37.434Z,61.88
2022-09-27T13:18:37.389Z,61.88
2022-09-27T13:19:37.340Z,61.88
2022-09-27T13:20:37.292Z,50.63
2022-09-27T13:21:37.249Z,39.38
2022-09-27T13:22:37.198Z,33.75
2022-09-27T13:23:37.162Z,28.13
2022-09-27T13:24:37.105Z,28.13
2022-09-27T13:25:37.068Z,33.75
2022-09-27T13:26:37.011Z,39.38
2022-09-27T13:27:36.965Z,39.38
2022-09-27T13:28:36.938Z,39.38
2022-09-27T13:29:36.874Z,39.38
2022-09-27T13:30:36.822Z,39.38
2022-09-27T13:31:36.811Z,45.00
2022-09-27T13:32:36.732Z,56.25
2022-09-27T13:33:36.684Z,67.50
2022-09-27T13:34:36.636Z,73.13
2022-09-27T13:35:36.594Z,73.13
2022-09-27T13:36:36.542Z,67.50
2022-09-27T13:37:36.498Z,67.50
2022-09-27T13:38:36.457Z,67.50
2022-09-27T13:39:36.406Z,67.50
2022-09-27T13:40:36.432Z,67.50
2022-09-27T13:41:36.309Z,73.13
2022-09-27T13:42:36.263Z,67.50
2022-09-27T13:43:36.219Z,67.50
2022-09-27T13:44:36.292Z,61.88
2022-09-27T13:45:36.123Z,61.88
2022-09-27T13:46:36.110Z,67.50
2022-09-27T13:47:36.037Z,73.13
2022-09-27T13:48:35.985Z,78.75
2022-09-27T13:49:35.944Z,78.75
2022-09-27T13:50:35.888Z,78.75
2022-09-27T13:51:35.842Z,78.75
2022-09-27T13:52:35.794Z,73.13
2022-09-27T13:53:35.750Z,67.50
2022-09-27T13:54:35.703Z,61.88
2022-09-27T13:55:35.659Z,56.25
2022-09-27T13:56:35.612Z,45.00
2022-09-27T13:57:35.562Z,45.00
2022-09-27T13:58:35.517Z,45.00
2022-09-27T13:59:35.473Z,45.00
2022-09-27T14:00:35.520Z,39.38
2022-09-27T14:01:35.449Z,39.38
2022-09-27T14:02:35.332Z,45.00
2022-09-27T14:03:35.283Z,56.25
2022-09-27T14:04:35.239Z,73.13
2022-09-27T14:05:35.188Z,78.75
2022-09-27T14:06:35.145Z,73.13
2022-09-27T14:07:35.098Z,67.50
2022-09-27T14:08:35.066Z,67.50
2022-09-27T14:09:35.002Z,67.50
2022-09-27T14:10:34.957Z,67.50
2022-09-27T14:11:34.910Z,67.50
2022-09-27T14:12:34.865Z,56.25
2022-09-27T14:13:34.818Z,50.63
2022-09-27T14:14:34.772Z,45.00
2022-09-27T14:15:34.723Z,33.75
2022-09-27T14:16:34.830Z,28.13
2022-09-27T14:17:34.630Z,22.50
2022-09-27T14:18:34.585Z,22.50
2022-09-27T14:19:34.539Z,28.13
2022-09-27T14:20:34.495Z,28.13
2022-09-27T14:21:34.445Z,22.50
2022-09-27T14:22:34.398Z,22.50
2022-09-27T14:23:34.350Z,22.50
2022-09-27T14:24:34.308Z,28.13
2022-09-27T14:25:34.257Z,28.13
2022-09-27T14:26:34.213Z,22.50
2022-09-27T14:27:34.167Z,22.50
2022-09-27T14:28:34.125Z,16.88
2022-09-27T14:29:34.077Z,11.25
2022-09-27T14:30:34.027Z,11.25
2022-09-27T14:31:34.061Z,11.25
2022-09-27T14:32:33.980Z,16.88
2022-09-27T14:33:33.885Z,22.50
2022-09-27T14:34:33.842Z,33.75
2022-09-27T14:35:33.796Z,39.38
2022-09-27T14:36:33.752Z,39.38
2022-09-27T14:37:33.698Z,39.38
2022-09-27T14:38:38.175Z,33.75
2022-09-27T14:39:33.613Z,28.13
2022-09-27T14:40:33.616Z,28.13
2022-09-27T14:41:33.512Z,28.13
2022-09-27T14:42:33.469Z,22.50
2022-09-27T14:43:33.421Z,22.50
2022-09-27T14:44:33.375Z,16.88
2022-09-27T14:45:33.327Z,16.88
2022-09-27T14:46:33.297Z,16.88
2022-09-27T14:47:33.246Z,22.50
2022-09-27T14:48:33.215Z,22.50
2022-09-27T14:49:33.141Z,22.50
2022-09-27T14:50:33.098Z,22.50
2022-09-27T14:51:33.053Z,28.13
2022-09-27T14:52:33.032Z,28.13
2022-09-27T14:53:32.950Z,28.13
2022-09-27T14:54:32.907Z,28.13
2022-09-27T14:55:32.860Z,33.75
2022-09-27T14:56:32.816Z,39.38
2022-09-27T14:57:32.779Z,39.38
2022-09-27T14:58:46.480Z,39.38
2022-09-27T14:59:32.677Z,39.38
2022-09-27T15:00:32.633Z,45.00
2022-09-27T15:02:32.530Z,50.63
2022-09-27T15:03:38.378Z,56.25
2022-09-27T15:04:32.668Z,56.25
2022-09-27T15:05:32.410Z,56.25
2022-09-27T15:06:32.347Z,56.25
2022-09-27T15:07:32.300Z,61.88
2022-09-27T15:08:32.253Z,61.88
2022-09-27T15:09:33.327Z,61.88
2022-09-27T15:10:32.159Z,67.50
2022-09-27T15:11:32.114Z,67.50
2022-09-27T15:12:32.066Z,67.50
2022-09-27T15:13:32.025Z,73.13
2022-09-27T15:14:32.012Z,73.13
2022-09-27T15:15:31.932Z,73.13
2022-09-27T15:16:31.980Z,73.13
2022-09-27T15:17:31.834Z,73.13
2022-09-27T15:18:31.789Z,73.13
2022-09-27T15:19:31.740Z,78.75
2022-09-27T15:20:34.913Z,78.75
2022-09-27T15:21:31.644Z,78.75
2022-09-27T15:22:31.598Z,78.75
2022-09-27T15:23:31.553Z,73.13
2022-09-27T15:24:31.506Z,67.50
2022-09-27T15:25:31.465Z,56.25
2022-09-27T15:26:31.414Z,50.63
2022-09-27T15:27:31.368Z,45.00
2022-09-27T15:28:31.319Z,45.00
2022-09-27T15:29:31.275Z,45.00
2022-09-27T15:30:31.226Z,45.00
2022-09-27T15:31:31.293Z,45.00
2022-09-27T15:32:31.134Z,45.00
2022-09-27T15:33:31.089Z,45.00
2022-09-27T15:34:31.042Z,50.63
2022-09-27T15:35:31.002Z,56.25
2022-09-27T15:36:30.965Z,56.25
2022-09-27T15:37:30.904Z,50.63
2022-09-27T15:38:30.857Z,45.00
2022-09-27T15:39:30.819Z,39.38
2022-09-27T15:40:30.801Z,39.38
2022-09-27T15:41:30.795Z,39.38
2022-09-27T15:42:30.683Z,45.00
2022-09-27T15:43:30.627Z,39.38
2022-09-27T15:44:34.000Z,45.00
2022-09-27T15:45:30.533Z,45.00
2022-09-27T15:46:30.523Z,50.63
2022-09-27T15:47:30.444Z,50.63
2022-09-27T15:48:30.390Z,50.63
2022-09-27T15:49:30.345Z,50.63
2022-09-27T15:50:30.299Z,45.00
2022-09-27T15:51:30.256Z,39.38
2022-09-27T15:52:30.284Z,39.38
2022-09-27T15:53:30.164Z,50.63
2022-09-27T15:54:30.112Z,50.63
2022-09-27T15:55:30.070Z,39.38
2022-09-27T15:56:30.225Z,39.38
2022-09-27T15:57:29.979Z,39.38
2022-09-27T15:58:29.924Z,39.38
2022-09-27T15:59:29.881Z,39.38
2022-09-27T16:00:29.977Z,33.75
2022-09-27T16:01:29.845Z,33.75
2022-09-27T16:02:29.814Z,28.13
2022-09-27T16:03:29.695Z,28.13
2022-09-27T16:04:29.647Z,28.13
2022-09-27T16:05:29.604Z,22.50
2022-09-27T16:06:29.555Z,22.50
2022-09-27T16:07:29.508Z,16.88
2022-09-27T16:08:29.479Z,16.88
2022-09-27T16:09:29.416Z,16.88
2022-09-27T16:10:29.368Z,11.25
2022-09-27T16:11:29.323Z,11.25
2022-09-27T16:12:29.276Z,11.25
2022-09-27T16:13:32.947Z,11.25
2022-09-27T16:14:29.188Z,11.25
2022-09-27T16:15:29.137Z,11.25
2022-09-27T16:16:29.117Z,11.25
2022-09-27T16:17:29.042Z,5.63
2022-09-27T16:18:30.753Z,5.63
2022-09-27T16:19:28.949Z,5.63
2022-09-27T16:20:28.903Z,5.63
2022-09-27T16:21:28.855Z,5.63
2022-09-27T16:22:28.809Z,5.63
2022-09-27T16:23:28.764Z,5.63
2022-09-27T16:24:28.730Z,5.63
2022-09-27T16:25:28.693Z,5.63
2022-09-27T16:26:28.621Z,5.63
2022-09-27T16:27:28.576Z,5.63
2022-09-27T16:28:28.526Z,5.63
2022-09-27T16:29:28.480Z,5.63
2022-09-27T16:30:28.432Z,5.63
2022-09-27T16:31:28.426Z,5.63
2022-09-27T16:32:28.340Z,5.63
2022-09-27T16:33:28.292Z,5.63
2022-09-27T16:34:28.308Z,5.63
2022-09-27T16:35:28.215Z,5.63
2022-09-27T16:36:28.151Z,5.63
2022-09-27T16:37:28.106Z,5.63
2022-09-27T16:38:28.059Z,5.63
2022-09-27T16:39:28.012Z,5.63
2022-09-27T16:40:28.029Z,5.63
2022-09-27T16:41:27.918Z,5.63
2022-09-27T16:42:27.868Z,5.63
2022-09-27T16:43:27.823Z,5.63
2022-09-27T16:44:27.782Z,0.00
2022-09-27T16:45:27.730Z,0.00
2022-09-27T16:46:27.759Z,0.00
2022-09-27T16:47:27.641Z,0.00
2022-09-27T16:48:27.592Z,0.00
2022-09-27T16:49:27.541Z,0.00
2022-09-27T16:50:27.491Z,0.00
2022-09-27T16:51:27.450Z,0.00
2022-09-27T16:53:27.353Z,0.00
2022-09-27T16:54:27.307Z,0.00
2022-09-27T16:55:27.258Z,0.00
2022-09-27T16:56:27.233Z,0.00
2022-09-27T16:57:27.162Z,0.00
2022-09-27T16:58:27.117Z,0.00
2022-09-27T16:59:27.070Z,0.00
2022-09-27T17:00:27.091Z,0.00
2022-09-27T17:01:26.975Z,0.00
2022-09-27T17:02:26.930Z,0.00
2022-09-27T17:03:26.882Z,0.00
2022-09-27T17:04:26.835Z,0.00
2022-09-27T17:05:26.785Z,0.00
2022-09-27T17:06:26.740Z,0.00
2022-09-27T17:07:26.692Z,0.00
2022-09-27T17:08:26.645Z,0.00
2022-09-27T17:09:26.598Z,0.00
2022-09-27T17:10:26.556Z,0.00
2022-09-27T17:11:26.502Z,0.00
2022-09-27T17:12:26.476Z,0.00
2022-09-27T17:13:26.404Z,0.00
2022-09-27T17:14:26.360Z,0.00
2022-09-27T17:15:26.313Z,0.00
2022-09-27T17:16:26.368Z,0.00
2022-09-27T17:17:26.217Z,0.00
2022-09-27T17:18:26.175Z,0.00
2022-09-27T17:19:26.123Z,0.00
2022-09-27T17:20:26.098Z,0.00
2022-09-27T17:21:26.030Z,0.00
2022-09-27T17:22:25.982Z,0.00
2022-09-27T17:23:25.937Z,0.00
2022-09-27T17:24:25.890Z,0.00
2022-09-27T17:25:25.843Z,0.00
2022-09-27T17:26:25.792Z,0.00
2022-09-27T17:27:26.078Z,0.00
2022-09-27T17:28:25.719Z,0.00
2022-09-27T17:29:25.647Z,0.00
2022-09-27T17:30:25.603Z,0.00
2022-09-27T17:31:25.638Z,0.00
2022-09-27T17:32:25.510Z,0.00
2022-09-27T17:33:25.463Z,0.00
2022-09-27T17:35:25.368Z,0.00
2022-09-27T17:36:25.327Z,0.00
2022-09-27T17:37:25.271Z,0.00
2022-09-27T17:38:25.228Z,0.00
2022-09-27T17:39:25.216Z,0.00
2022-09-27T17:40:25.192Z,0.00
2022-09-27T17:41:25.098Z,0.00
2022-09-27T17:42:25.031Z,0.00
2022-09-27T17:43:24.990Z,0.00
2022-09-27T17:44:24.958Z,0.00
2022-09-27T17:45:24.891Z,0.00
2022-09-27T17:46:24.907Z,0.00
2022-09-27T17:47:24.799Z,0.00
2022-09-27T17:48:24.750Z,0.00
2022-09-27T17:49:24.717Z,0.00
2022-09-27T17:50:24.654Z,0.00
2022-09-27T17:51:24.607Z,0.00
2022-09-27T17:52:24.559Z,0.00
2022-09-27T17:53:24.510Z,0.00
2022-09-27T17:54:24.462Z,0.00
2022-09-27T17:55:24.420Z,0.00
2022-09-27T17:56:24.368Z,0.00
2022-09-27T17:57:24.320Z,0.00
2022-09-27T17:58:24.272Z,0.00
2022-09-27T17:59:24.227Z,0.00
2022-09-27T18:00:24.195Z,0.00
2022-09-27T18:01:24.189Z,0.00
2022-09-27T18:02:24.176Z,0.00
2022-09-27T18:03:24.043Z,0.00
2022-09-27T18:04:23.989Z,0.00
2022-09-27T18:05:23.941Z,0.00
2022-09-27T18:06:23.895Z,0.00
2022-09-27T18:07:23.848Z,0.00
2022-09-27T18:08:23.799Z,0.00
2022-09-27T18:09:23.751Z,0.00
2022-09-27T18:10:23.707Z,0.00
2022-09-27T18:11:23.661Z,0.00
2022-09-27T18:12:23.607Z,0.00
2022-09-27T18:13:23.561Z,0.00
2022-09-27T18:14:23.514Z,0.00
2022-09-27T18:15:23.473Z,0.00
2022-09-27T18:16:23.532Z,0.00
2022-09-27T18:17:23.370Z,0.00
2022-09-27T18:18:23.320Z,0.00
2022-09-27T18:19:23.276Z,0.00
2022-09-27T18:20:23.228Z,0.00
2022-09-27T18:21:23.178Z,0.00
2022-09-27T18:22:23.131Z,0.00
2022-09-27T18:23:23.088Z,0.00
2022-09-27T18:24:23.038Z,0.00
2022-09-27T18:25:22.990Z,0.00
2022-09-27T18:26:22.941Z,0.00
2022-09-27T18:27:22.897Z,0.00
2022-09-27T18:28:22.849Z,0.00
2022-09-27T18:29:22.798Z,0.00
2022-09-27T18:30:22.751Z,0.00
2022-09-27T18:31:22.743Z,0.00